Thursday, January 29, 2015
08:19 UTC
  |  Log In   |  Register Free
Airport Search:

Lincoln Airport
(KLNK)

FAA data valid effective January 08, 2015 - March 05, 2015 (unless otherwise noted).

 
 
 
 
 
 
 
 
 
 
 
 
 
 

Current Aviation Weather for Lincoln Airport (KLNK)

The most recent METAR observation for KLNK was updated at: 0810
METAR Summary (Translated METAR)
KLNK
290754Z AUTO 34022G32KT 10SM OVC018 03/M01 A3011 RMK AO2 PK WND 33041/0707 SLP200 T00331011
KAHQ
290755Z AUTO 33026G35KT 10SM OVC016 03/M02 A3009 RMK AO2 T00251016
(24.6 nm NE from KLNK)
KBIE
290755Z AUTO 34031G37KT 10SM OVC018 03/M01 A3012 RMK AO2 T00311006
(33 nm SE from KLNK)
TAF Summary (Translated TAF)
KLNK
290535Z 2906/3006 33025G34KT P6SM OVC015 FM291600 33019G25KT P6SM SCT250 FM292100 34014KT P6SM SCT050 FM300000 34006KT P6SM SKC
  Airport Weather Conditions for KLNK

 Current Weather at LNK
38° F
Overcast and Breezy
North winds at 25.3 mph
LNK NOAA Radar

Pressure: 30.11 in
Humidity: 73%
Wind: from the North at 25.3 gusting to 36.8 MPH (22 gusting to 32 KT)
Dew Point: 30.0°F
Visibility: 10.00 mi


Airport Weather Forecast for KLNK

Translated METAR and TAF for KLNK
Translated METAR for KLNK (0819 UTC 29 January 2015)
found at http://aviationweather.gov/adds/metars/
 
METAR text: KLNK 290754Z AUTO 34022G32KT 10SM OVC018 03/M01 A3011 RMK AO2 PK WND 33041/0707 SLP200 T00331011
Conditions at: KLNK (LINCOLN , NE, US) observed 0754 UTC 29 January 2015
Temperature: 3.3°C (38°F)
Dewpoint: -1.1°C (30°F) [RH = 73%]
Pressure (altimeter): 30.11 inches Hg (1019.7 mb)
[Sea-level pressure: 1020.0 mb]
Winds: from the NNW (340 degrees) at 25 MPH (22 knots; 11.4 m/s)
gusting to 37 MPH (32 knots; 16.6 m/s)
Visibility: 10 or more miles (16+ km)
Ceiling: 1800 feet AGL
Clouds: overcast cloud deck at 1800 feet AGL
Weather: automated observation with no human augmentation;
there may or may not be significant weather present at this time
Translated TAF for KLNK
Forecast for: KLNK (LINCOLN , NE, US)
TAF Text: KLNK 290535Z 2906/3006 33025G34KT P6SM OVC015
Forecast period: 0600 to 1600 UTC 29 January 2015
Forecast type: FROM: standard forecast or significant change
Winds: from the NNW (330 degrees) at 29 MPH (25 knots; 13.0 m/s)
gusting to 39 MPH (34 knots; 17.7 m/s)
Visibility: 6 or more miles (10+ km)
Ceiling: 1500 feet AGL
Clouds: overcast cloud deck at 1500 feet AGL
Weather: no significant weather forecast for this period
TAF Text: FM291600 33019G25KT P6SM SCT250
Forecast period: 1600 to 2100 UTC 29 January 2015
Forecast type: FROM: standard forecast or significant change
Winds: from the NNW (330 degrees) at 22 MPH (19 knots; 9.9 m/s)
gusting to 29 MPH (25 knots; 13.0 m/s)
Visibility: 6 or more miles (10+ km)
Clouds: scattered clouds at 25000 feet AGL
Weather: no significant weather forecast for this period
TAF Text: FM292100 34014KT P6SM SCT050
Forecast period: 2100 UTC 29 January 2015 to 0000 UTC 30 January 2015
Forecast type: FROM: standard forecast or significant change
Winds: from the NNW (340 degrees) at 16 MPH (14 knots; 7.3 m/s)
Visibility: 6 or more miles (10+ km)
Clouds: scattered clouds at 5000 feet AGL
Weather: no significant weather forecast for this period
TAF Text: FM300000 34006KT P6SM SKC
Forecast period: 0000 to 0600 UTC 30 January 2015
Forecast type: FROM: standard forecast or significant change
Winds: from the NNW (340 degrees) at 7 MPH (6 knots; 3.1 m/s)
Visibility: 6 or more miles (10+ km)
Clouds: clear skies
Weather: no significant weather forecast for this period

Find All Airport Services Find A Hotel Find A Rental Car Find A Golf Course Find A Restaurant $100 Hamburger



FBO's on the Field
FBO Company Facility Photos Services Transportation Aviation Fuel Prices: Prices include tax
Catering Weather Repair Courtesy Rental Type 100LL JetA JetA+ MOGAS 8087
 
Duncan Aviation

This FBO has not yet been rated
FS:Avfuel
Last Updated: Jan-27
Login to update fuel prices
SS:
Contact Duncan AviationMore FBO Information
 
Silverhawk Aviation

This FBO has not yet been rated
FS:Phillips 66
Last Updated: Jan-27
Login to update fuel prices
SS:
Contact Silverhawk AviationMore FBO Information
 
Add another FBO Facility Photos Catering Weather Repair Courtesy Rental Type 100LL JetA JetA+ MOGAS 8087
Services Transportation Aviation Fuel Prices: Prices include tax


model-print
model-print
model-print
model-print